createdAt,value
2019-03-13T00:01:39.064Z,100602.67
2019-03-13T00:04:09.997Z,100592.50
2019-03-13T00:06:40.957Z,100586.27
2019-03-13T00:09:12.277Z,100585.86
2019-03-13T00:11:43.229Z,100589.58
2019-03-13T00:14:14.164Z,100585.97
2019-03-13T00:16:46.841Z,100586.62
2019-03-13T00:19:17.771Z,100579.94
2019-03-13T00:21:48.721Z,100576.95
2019-03-13T00:24:19.668Z,100578.25
2019-03-13T00:26:50.612Z,100566.37
2019-03-13T00:29:22.322Z,100558.39
2019-03-13T00:31:53.376Z,100551.86
2019-03-13T00:34:24.314Z,100545.77
2019-03-13T00:36:55.258Z,100540.23
2019-03-13T00:39:26.262Z,100533.02
2019-03-13T00:41:57.216Z,100526.45
2019-03-13T00:44:28.152Z,100527.17
2019-03-13T00:46:59.399Z,100517.12
2019-03-13T00:49:30.264Z,100509.53
2019-03-13T00:52:02.155Z,100492.91
2019-03-13T00:54:33.151Z,100483.64
2019-03-13T00:57:04.108Z,100476.31
2019-03-13T00:59:35.202Z,100476.84
2019-03-13T01:02:24.237Z,100470.38
2019-03-13T01:05:09.071Z,100470.82
2019-03-13T01:07:40.049Z,100466.38
2019-03-13T01:10:11.280Z,100449.38
2019-03-13T01:12:42.230Z,100432.63
2019-03-13T01:15:13.165Z,100426.42
2019-03-13T01:17:44.167Z,100422.58
2019-03-13T01:20:15.108Z,100409.50
2019-03-13T01:22:46.069Z,100395.17
2019-03-13T01:25:17.005Z,100385.57
2019-03-13T01:27:47.969Z,100390.14
2019-03-13T01:30:21.435Z,100388.71
2019-03-13T01:32:57.740Z,100387.21
2019-03-13T01:35:30.294Z,100389.70
2019-03-13T01:38:01.245Z,100387.02
2019-03-13T01:40:32.177Z,100379.61
2019-03-13T01:43:03.138Z,100371.31
2019-03-13T01:45:34.074Z,100361.63
2019-03-13T01:48:05.897Z,100363.47
2019-03-13T01:50:36.823Z,100355.34
2019-03-13T01:53:07.866Z,100368.83
2019-03-13T01:55:38.795Z,100357.17
2019-03-13T01:58:10.589Z,100345.69
2019-03-13T02:00:41.519Z,100337.22
2019-03-13T02:03:13.507Z,100343.06
2019-03-13T02:05:44.429Z,100337.42
2019-03-13T02:08:15.430Z,100335.27
2019-03-13T02:10:47.109Z,100333.05
2019-03-13T02:13:18.072Z,100322.50
2019-03-13T02:15:49.016Z,100311.66
2019-03-13T02:18:20.010Z,100303.43
2019-03-13T02:20:50.940Z,100300.54
2019-03-13T02:23:21.890Z,100296.37
2019-03-13T02:25:54.047Z,100283.81
2019-03-13T02:28:24.969Z,100280.92
2019-03-13T02:30:56.849Z,100266.28
2019-03-13T02:33:28.614Z,100265.91
2019-03-13T02:35:59.547Z,100260.20
2019-03-13T02:38:30.508Z,100250.47
2019-03-13T02:41:01.426Z,100241.52
2019-03-13T02:43:32.471Z,100235.75
2019-03-13T02:46:03.392Z,100234.44
2019-03-13T02:48:35.375Z,100228.77
2019-03-13T02:51:06.300Z,100222.80
2019-03-13T02:53:38.107Z,100218.95
2019-03-13T02:56:09.032Z,100213.20
2019-03-13T02:58:42.003Z,100197.46
2019-03-13T03:01:14.574Z,100196.60
2019-03-13T03:03:50.779Z,100188.76
2019-03-13T03:06:21.712Z,100187.70
2019-03-13T03:08:52.666Z,100172.53
2019-03-13T03:11:23.595Z,100172.66
2019-03-13T03:13:54.546Z,100170.70
2019-03-13T03:16:25.487Z,100165.09
2019-03-13T03:18:56.474Z,100161.47
2019-03-13T03:21:27.400Z,100160.11
2019-03-13T03:23:58.359Z,100166.53
2019-03-13T03:26:29.286Z,100167.71
2019-03-13T03:29:00.219Z,100165.87
2019-03-13T03:31:32.822Z,100162.97
2019-03-13T03:34:04.039Z,100164.16
2019-03-13T03:36:35.054Z,100150.11
2019-03-13T03:39:07.089Z,100147.98
2019-03-13T03:41:37.993Z,100143.25
2019-03-13T03:44:08.943Z,100139.48
2019-03-13T03:46:39.845Z,100139.73
2019-03-13T03:49:10.893Z,100140.27
2019-03-13T03:51:41.791Z,100133.20
2019-03-13T03:54:12.739Z,100136.14
2019-03-13T03:56:43.638Z,100138.89
2019-03-13T03:59:14.577Z,100142.03
2019-03-13T04:01:45.474Z,100132.63
2019-03-13T04:04:17.295Z,100131.69
2019-03-13T04:06:48.192Z,100134.79
2019-03-13T04:09:19.131Z,100128.37
2019-03-13T04:11:50.035Z,100115.02
2019-03-13T04:14:21.143Z,100109.14
2019-03-13T04:16:52.091Z,100108.33
2019-03-13T04:19:23.875Z,100109.55
2019-03-13T04:21:54.789Z,100099.20
2019-03-13T04:24:27.019Z,100093.09
2019-03-13T04:26:57.905Z,100079.77
2019-03-13T04:29:28.833Z,100087.74
2019-03-13T04:32:03.062Z,100084.20
2019-03-13T04:34:34.812Z,100087.62
2019-03-13T04:37:05.729Z,100079.77
2019-03-13T04:39:36.651Z,100081.87
2019-03-13T04:42:07.561Z,100080.45
2019-03-13T04:44:38.501Z,100083.70
2019-03-13T04:47:09.478Z,100074.03
2019-03-13T04:49:41.241Z,100071.41
2019-03-13T04:52:12.157Z,100066.96
2019-03-13T04:54:43.030Z,100063.25
2019-03-13T04:57:13.925Z,100055.94
2019-03-13T04:59:44.857Z,100048.02
2019-03-13T05:02:15.757Z,100062.67
2019-03-13T05:04:46.729Z,100058.55
2019-03-13T05:07:17.630Z,100059.33
2019-03-13T05:09:48.565Z,100048.79
2019-03-13T05:12:19.539Z,100039.06
2019-03-13T05:14:50.482Z,100040.37
2019-03-13T05:17:21.381Z,100034.69
2019-03-13T05:19:53.369Z,100035.72
2019-03-13T05:22:24.283Z,100045.70
2019-03-13T05:24:55.223Z,100040.45
2019-03-13T05:27:26.192Z,100040.82
2019-03-13T05:29:57.135Z,100044.61
2019-03-13T05:32:28.919Z,100034.53
2019-03-13T05:35:00.804Z,100044.16
2019-03-13T05:37:31.719Z,100047.14
2019-03-13T05:40:02.645Z,100040.03
2019-03-13T05:42:33.551Z,100037.78
2019-03-13T05:45:08.377Z,100034.42
2019-03-13T05:47:39.016Z,100033.44
2019-03-13T05:50:12.277Z,100023.24
2019-03-13T05:52:43.189Z,100025.86
2019-03-13T05:55:14.119Z,100028.80
2019-03-13T05:57:45.024Z,100022.25
2019-03-13T06:00:20.644Z,100030.92
2019-03-13T06:02:51.552Z,100038.95
2019-03-13T06:05:23.340Z,100031.30
2019-03-13T06:07:54.244Z,100035.67
2019-03-13T06:10:25.187Z,100038.84
2019-03-13T06:12:56.860Z,100036.22
2019-03-13T06:15:27.807Z,100036.89
2019-03-13T06:17:58.708Z,100030.13
2019-03-13T06:20:30.614Z,100054.09
2019-03-13T06:23:01.535Z,100051.80
2019-03-13T06:25:32.475Z,100045.80
2019-03-13T06:28:03.369Z,100036.87
2019-03-13T06:30:34.296Z,100023.73
2019-03-13T06:33:11.973Z,100043.95
2019-03-13T06:35:43.821Z,100040.30
2019-03-13T06:38:14.729Z,100029.15
2019-03-13T06:40:45.671Z,100037.37
2019-03-13T06:43:16.575Z,100044.77
2019-03-13T06:45:47.576Z,100037.09
2019-03-13T06:48:18.631Z,100045.85
2019-03-13T06:50:50.595Z,100041.83
2019-03-13T06:53:21.459Z,100044.22
2019-03-13T06:55:54.704Z,100044.72
2019-03-13T06:58:27.250Z,100047.78
2019-03-13T07:01:02.818Z,100044.16
2019-03-13T07:03:44.447Z,100045.88
2019-03-13T07:06:30.083Z,100051.78
2019-03-13T07:09:11.567Z,100053.72
2019-03-13T07:12:02.176Z,100050.23
2019-03-13T07:14:34.726Z,100054.53
2019-03-13T07:17:10.129Z,100059.90
2019-03-13T07:19:48.861Z,100049.97
2019-03-13T07:22:38.831Z,100061.39
2019-03-13T07:25:26.363Z,100049.09
2019-03-13T07:28:08.125Z,100052.48
2019-03-13T07:30:46.707Z,100051.70
2019-03-13T07:33:37.549Z,100056.81
2019-03-13T07:36:28.474Z,100058.66
2019-03-13T07:39:06.244Z,100060.84
2019-03-13T07:41:50.621Z,100054.45
2019-03-13T07:44:29.263Z,100058.11
2019-03-13T07:47:01.811Z,100047.42
2019-03-13T07:49:34.325Z,100049.31
2019-03-13T07:52:09.813Z,100059.91
2019-03-13T07:54:43.423Z,100044.98
2019-03-13T07:57:15.970Z,100040.78
2019-03-13T07:59:48.567Z,100046.45
2019-03-13T08:02:21.099Z,100045.06
2019-03-13T08:05:05.661Z,100048.09
2019-03-13T08:07:41.348Z,100037.41
2019-03-13T08:10:14.974Z,100040.87
2019-03-13T08:12:50.198Z,100036.87
2019-03-13T08:15:25.513Z,100042.42
2019-03-13T08:17:58.133Z,100031.33
2019-03-13T08:20:42.933Z,100029.88
2019-03-13T08:23:31.821Z,100025.09
2019-03-13T08:26:06.727Z,100028.82
2019-03-13T08:28:54.265Z,100040.83
2019-03-13T08:31:35.496Z,100045.92
2019-03-13T08:34:23.274Z,100043.33
2019-03-13T08:36:58.279Z,100051.50
2019-03-13T08:39:49.088Z,100045.04
2019-03-13T08:42:27.451Z,100050.80
2019-03-13T08:45:16.287Z,100048.02
2019-03-13T08:47:51.821Z,100056.30
2019-03-13T08:50:24.354Z,100036.80
2019-03-13T08:52:56.946Z,100054.66
2019-03-13T08:55:29.476Z,100058.69
2019-03-13T08:58:02.915Z,100056.45
2019-03-13T09:00:38.191Z,100056.38
2019-03-13T09:03:22.634Z,100056.16
2019-03-13T09:05:55.177Z,100052.86
2019-03-13T09:08:30.701Z,100067.34
2019-03-13T09:11:15.526Z,100065.28
2019-03-13T09:14:04.247Z,100069.79
2019-03-13T09:16:48.774Z,100074.17
2019-03-13T09:19:21.402Z,100086.74
2019-03-13T09:21:56.884Z,100082.60
2019-03-13T09:24:29.540Z,100087.65
2019-03-13T09:27:05.218Z,100106.92
2019-03-13T09:29:46.812Z,100104.77
2019-03-13T09:32:28.191Z,100101.25
2019-03-13T09:35:01.788Z,100103.02
2019-03-13T09:37:52.325Z,100111.78
2019-03-13T09:40:41.256Z,100101.32
2019-03-13T09:43:16.590Z,100112.38
2019-03-13T09:46:02.075Z,100116.21
2019-03-13T09:48:34.604Z,100123.11
2019-03-13T09:51:07.187Z,100129.37
2019-03-13T09:53:42.437Z,100122.75
2019-03-13T09:56:15.004Z,100117.03
2019-03-13T09:58:47.543Z,100122.13
2019-03-13T10:01:20.938Z,100126.50
2019-03-13T10:04:02.517Z,100118.25
2019-03-13T10:06:51.494Z,100121.73
2019-03-13T10:09:29.994Z,100121.09
2019-03-13T10:12:08.448Z,100128.60
2019-03-13T10:14:56.895Z,100124.08
2019-03-13T10:17:29.498Z,100126.30
2019-03-13T10:20:04.725Z,100129.89
2019-03-13T10:22:43.248Z,100128.24
2019-03-13T10:25:18.813Z,100128.72
2019-03-13T10:27:51.382Z,100130.55
2019-03-13T10:30:23.912Z,100139.32
2019-03-13T10:33:12.181Z,100142.23
2019-03-13T10:35:47.334Z,100135.70
2019-03-13T10:38:37.990Z,100135.23
2019-03-13T10:41:19.749Z,100140.81
2019-03-13T10:44:08.783Z,100149.64
2019-03-13T10:46:56.545Z,100141.69
2019-03-13T10:49:44.820Z,100142.65
2019-03-13T10:52:34.365Z,100145.86
2019-03-13T10:55:08.232Z,100141.91
2019-03-13T10:57:40.763Z,100144.91
2019-03-13T11:00:24.171Z,100148.58
2019-03-13T11:02:59.688Z,100141.36
2019-03-13T11:05:42.105Z,100147.55
2019-03-13T11:08:17.367Z,100154.89
2019-03-13T11:10:52.649Z,100148.69
2019-03-13T11:13:25.179Z,100157.91
2019-03-13T11:16:14.190Z,100161.11
2019-03-13T11:18:55.664Z,100166.55
2019-03-13T11:21:29.065Z,100161.64
2019-03-13T11:24:01.595Z,100163.44
2019-03-13T11:26:46.163Z,100169.34
2019-03-13T11:29:44.003Z,100167.27
2019-03-13T11:32:13.664Z,100167.06
2019-03-13T11:34:55.205Z,100176.03
2019-03-13T11:37:27.894Z,100166.58
2019-03-13T11:40:06.174Z,100179.83
2019-03-13T11:42:41.670Z,100171.73
2019-03-13T11:45:14.218Z,100161.92
2019-03-13T11:47:46.788Z,100167.04
2019-03-13T11:50:25.085Z,100176.72
2019-03-13T11:53:03.701Z,100177.42
2019-03-13T11:55:52.768Z,100180.13
2019-03-13T11:58:31.063Z,100185.97
2019-03-13T12:01:06.552Z,100190.88
2019-03-13T12:03:44.901Z,100182.20
2019-03-13T12:06:20.141Z,100187.92
2019-03-13T12:08:53.529Z,100189.73
2019-03-13T12:11:32.029Z,100180.87
2019-03-13T12:14:07.566Z,100169.55
2019-03-13T12:16:55.350Z,100177.75
2019-03-13T12:19:33.944Z,100177.62
2019-03-13T12:22:18.363Z,100175.09
2019-03-13T12:24:54.872Z,100175.87
2019-03-13T12:27:33.625Z,100174.08
2019-03-13T12:30:09.095Z,100173.39
2019-03-13T12:32:44.703Z,100173.28
2019-03-13T12:35:17.275Z,100162.54
2019-03-13T12:38:05.959Z,100158.18
2019-03-13T12:40:41.247Z,100167.30
2019-03-13T12:43:16.496Z,100172.31
2019-03-13T12:46:07.340Z,100172.81
2019-03-13T12:48:39.877Z,100169.60
2019-03-13T12:51:18.225Z,100166.22
2019-03-13T12:53:50.761Z,100159.61
2019-03-13T12:56:36.443Z,100165.05
2019-03-13T12:59:25.088Z,100155.75
2019-03-13T13:02:14.028Z,100162.50
2019-03-13T13:05:03.008Z,100163.78
2019-03-13T13:07:41.799Z,100173.77
2019-03-13T13:10:17.181Z,100162.31
2019-03-13T13:12:59.050Z,100157.57
2019-03-13T13:15:37.563Z,100156.56
2019-03-13T13:18:25.373Z,100166.69
2019-03-13T13:20:56.303Z,100162.60
2019-03-13T13:23:27.248Z,100157.45
2019-03-13T13:25:58.169Z,100163.15
2019-03-13T13:28:29.210Z,100157.69
2019-03-13T13:31:00.109Z,100156.56
2019-03-13T13:33:33.083Z,100158.20
2019-03-13T13:36:04.391Z,100156.45
2019-03-13T13:38:37.058Z,100152.69
2019-03-13T13:41:07.964Z,100149.16
2019-03-13T13:43:38.932Z,100160.64
2019-03-13T13:46:12.749Z,100154.63
2019-03-13T13:48:44.580Z,100160.70
2019-03-13T13:51:15.484Z,100160.40
2019-03-13T13:53:46.490Z,100170.89
2019-03-13T13:56:17.400Z,100169.19
2019-03-13T13:58:49.269Z,100168.80
2019-03-13T14:01:20.174Z,100176.36
2019-03-13T14:03:51.094Z,100166.27
2019-03-13T14:06:22.004Z,100170.75
2019-03-13T14:08:52.923Z,100172.66
2019-03-13T14:11:23.833Z,100169.84
2019-03-13T14:13:54.817Z,100172.91
2019-03-13T14:16:28.235Z,100175.84
2019-03-13T14:18:58.352Z,100179.63
2019-03-13T14:21:29.250Z,100173.97
2019-03-13T14:24:00.168Z,100177.93
2019-03-13T14:26:31.072Z,100178.38
2019-03-13T14:29:06.525Z,100175.47
2019-03-13T14:31:37.426Z,100170.00
2019-03-13T14:34:08.347Z,100173.77
2019-03-13T14:36:39.259Z,100174.70
2019-03-13T14:39:11.033Z,100178.88
2019-03-13T14:41:41.933Z,100181.23
2019-03-13T14:44:12.897Z,100183.02
2019-03-13T14:46:47.846Z,100179.61
2019-03-13T14:49:18.722Z,100189.05
2019-03-13T14:51:49.700Z,100192.70
2019-03-13T14:54:20.641Z,100194.13
2019-03-13T14:56:51.530Z,100193.77
2019-03-13T14:59:23.317Z,100193.31
2019-03-13T15:01:54.230Z,100198.48
2019-03-13T15:04:25.167Z,100204.32
2019-03-13T15:06:56.130Z,100205.75
2019-03-13T15:09:28.177Z,100205.08
2019-03-13T15:11:59.075Z,100206.22
2019-03-13T15:14:30.949Z,100204.27
2019-03-13T15:17:01.855Z,100196.66
2019-03-13T15:19:33.489Z,100193.63
2019-03-13T15:22:04.403Z,100190.61
2019-03-13T15:24:35.407Z,100197.41
2019-03-13T15:27:06.309Z,100201.53
2019-03-13T15:29:38.062Z,100202.27
2019-03-13T15:32:08.962Z,100210.00
2019-03-13T15:34:41.511Z,100201.24
2019-03-13T15:37:12.568Z,100203.23
2019-03-13T15:39:45.286Z,100201.62
2019-03-13T15:42:16.185Z,100202.27
2019-03-13T15:44:47.947Z,100202.38
2019-03-13T15:47:18.843Z,100199.46
2019-03-13T15:49:49.772Z,100191.45
2019-03-13T15:52:20.674Z,100193.16
2019-03-13T15:54:51.598Z,100189.48
2019-03-13T15:57:22.493Z,100194.82
2019-03-13T15:59:58.908Z,100194.17
2019-03-13T16:02:29.809Z,100194.17
2019-03-13T16:05:00.739Z,100184.78
2019-03-13T16:07:31.645Z,100190.80
2019-03-13T16:10:03.522Z,100183.75
2019-03-13T16:12:34.655Z,100184.56
2019-03-13T16:15:09.306Z,100181.58
2019-03-13T16:17:41.925Z,100183.35
2019-03-13T16:20:14.607Z,100177.80
2019-03-13T16:22:47.153Z,100178.94
2019-03-13T16:25:18.153Z,100172.53
2019-03-13T16:27:49.051Z,100173.67
2019-03-13T16:30:23.559Z,100184.20
2019-03-13T16:32:54.531Z,100185.06
2019-03-13T16:35:26.577Z,100180.61
2019-03-13T16:37:57.569Z,100179.97
2019-03-13T16:40:31.623Z,100180.07
2019-03-13T16:43:01.654Z,100177.43
2019-03-13T16:45:33.605Z,100179.84
2019-03-13T16:48:04.895Z,100169.98
2019-03-13T16:50:37.321Z,100175.31
2019-03-13T16:53:08.305Z,100174.00
2019-03-13T16:55:39.232Z,100170.62
2019-03-13T16:58:10.167Z,100157.56
2019-03-13T17:00:41.979Z,100170.84
2019-03-13T17:03:12.929Z,100169.42
2019-03-13T17:05:43.817Z,100169.14
2019-03-13T17:08:14.711Z,100170.45
2019-03-13T17:10:45.710Z,100169.98
2019-03-13T17:13:16.622Z,100171.20
2019-03-13T17:15:48.533Z,100167.62
2019-03-13T17:18:19.441Z,100162.73
2019-03-13T17:20:50.404Z,100161.63
2019-03-13T17:23:21.305Z,100158.71
2019-03-13T17:25:52.227Z,100154.83
2019-03-13T17:28:23.435Z,100155.04
2019-03-13T17:30:55.215Z,100134.92
2019-03-13T17:33:26.156Z,100153.44
2019-03-13T17:36:04.378Z,100146.00
2019-03-13T17:38:40.621Z,100147.33
2019-03-13T17:41:11.688Z,100139.43
2019-03-13T17:43:42.665Z,100142.71
2019-03-13T17:46:16.247Z,100142.64
2019-03-13T17:48:47.206Z,100143.39
2019-03-13T17:51:18.283Z,100149.57
2019-03-13T17:53:49.289Z,100150.52
2019-03-13T17:56:20.383Z,100147.90
2019-03-13T17:58:54.185Z,100150.14
2019-03-13T18:01:27.851Z,100141.89
2019-03-13T18:03:58.822Z,100147.97
2019-03-13T18:06:29.812Z,100139.62
2019-03-13T18:09:03.985Z,100146.77
2019-03-13T18:11:33.618Z,100133.61
2019-03-13T18:14:04.747Z,100125.90
2019-03-13T18:16:38.250Z,100136.63
2019-03-13T18:19:09.179Z,100127.61
2019-03-13T18:21:41.799Z,100121.20
2019-03-13T18:24:13.377Z,100124.02
2019-03-13T18:26:44.328Z,100123.48
2019-03-13T18:29:15.338Z,100114.64
2019-03-13T18:31:46.425Z,100106.00
2019-03-13T18:34:17.595Z,100100.73
2019-03-13T18:36:54.523Z,100103.36
2019-03-13T18:39:25.491Z,100097.25
2019-03-13T18:41:57.379Z,100101.48
2019-03-13T18:44:28.454Z,100105.06
2019-03-13T18:47:00.464Z,100102.69
2019-03-13T18:49:31.525Z,100098.95
2019-03-13T18:52:02.507Z,100099.98
2019-03-13T18:54:33.510Z,100101.66
2019-03-13T18:57:04.674Z,100096.22
2019-03-13T18:59:37.986Z,100097.17
2019-03-13T19:02:11.314Z,100094.16
2019-03-13T19:04:42.377Z,100088.32
2019-03-13T19:07:13.340Z,100088.71
2019-03-13T19:09:44.334Z,100090.11
2019-03-13T19:12:15.373Z,100082.32
2019-03-13T19:14:46.437Z,100084.77
2019-03-13T19:17:17.628Z,100080.44
2019-03-13T19:19:50.204Z,100077.06
2019-03-13T19:22:23.150Z,100071.41
2019-03-13T19:24:58.303Z,100075.35
2019-03-13T19:27:37.606Z,100074.81
2019-03-13T19:30:20.892Z,100080.25
2019-03-13T19:32:54.496Z,100076.88
2019-03-13T19:35:25.572Z,100066.36
2019-03-13T19:38:00.534Z,100068.03
2019-03-13T19:40:31.499Z,100070.48
2019-03-13T19:43:03.399Z,100067.11
2019-03-13T19:45:47.507Z,100060.25
2019-03-13T19:48:22.329Z,100056.77
2019-03-13T19:50:56.398Z,100056.20
2019-03-13T19:53:26.031Z,100060.25
2019-03-13T19:56:01.645Z,100044.75
2019-03-13T19:58:32.643Z,100046.06
2019-03-13T20:01:05.019Z,100048.69
2019-03-13T20:03:36.196Z,100043.44
2019-03-13T20:06:07.144Z,100037.33
2019-03-13T20:08:38.253Z,100032.34
2019-03-13T20:11:09.170Z,100031.03
2019-03-13T20:13:40.330Z,100022.57
2019-03-13T20:16:11.458Z,100023.53
2019-03-13T20:18:43.446Z,100017.88
2019-03-13T20:21:14.592Z,100023.03
2019-03-13T20:23:45.615Z,100014.97
2019-03-13T20:26:16.692Z,100023.31
2019-03-13T20:28:49.649Z,100019.59
2019-03-13T20:31:21.184Z,100016.39
2019-03-13T20:34:10.321Z,100006.51
2019-03-13T20:36:41.343Z,100012.63
2019-03-13T20:39:12.341Z,100013.37
2019-03-13T20:41:43.235Z,100012.73
2019-03-13T20:44:15.792Z,100006.51
2019-03-13T20:46:46.695Z,100009.06
2019-03-13T20:49:17.658Z,100010.45
2019-03-13T20:51:48.567Z,100009.42
2019-03-13T20:54:19.513Z,100001.53
2019-03-13T20:56:50.419Z,100001.17
2019-03-13T20:59:21.410Z,99997.12
2019-03-13T21:01:52.299Z,99992.33
2019-03-13T21:04:24.069Z,99994.31
2019-03-13T21:06:54.972Z,99981.06
2019-03-13T21:09:25.890Z,99985.19
2019-03-13T21:11:56.782Z,99983.12
2019-03-13T21:14:27.710Z,99979.73
2019-03-13T21:16:58.582Z,99980.95
2019-03-13T21:19:30.411Z,99970.70
2019-03-13T21:22:04.386Z,99972.88
2019-03-13T21:24:33.897Z,99970.98
2019-03-13T21:27:04.789Z,99961.72
2019-03-13T21:29:35.705Z,99967.50
2019-03-13T21:32:06.591Z,99968.54
2019-03-13T21:34:38.557Z,99960.58
2019-03-13T21:37:09.444Z,99966.00
2019-03-13T21:39:40.376Z,99949.30
2019-03-13T21:42:11.279Z,99962.63
2019-03-13T21:44:43.776Z,99969.94
2019-03-13T21:47:14.681Z,99959.32
2019-03-13T21:49:46.411Z,99958.67
2019-03-13T21:52:17.299Z,99951.07
2019-03-13T21:54:48.221Z,99949.08
2019-03-13T21:57:19.116Z,99948.15
2019-03-13T21:59:50.043Z,99943.06
2019-03-13T22:02:32.274Z,99942.31
2019-03-13T22:04:54.364Z,99939.11
2019-03-13T22:07:25.404Z,99937.23
2019-03-13T22:09:58.699Z,99933.30
2019-03-13T22:12:29.723Z,99925.40
2019-03-13T22:15:00.640Z,99930.37
2019-03-13T22:17:35.290Z,99928.31
2019-03-13T22:20:11.393Z,99927.95
2019-03-13T22:22:41.594Z,99927.50
2019-03-13T22:25:17.066Z,99927.01
2019-03-13T22:27:47.954Z,99932.47
2019-03-13T22:30:23.162Z,99924.02
2019-03-13T22:32:54.248Z,99924.78
2019-03-13T22:35:26.238Z,99920.84
2019-03-13T22:37:58.147Z,99925.55
2019-03-13T22:40:29.048Z,99922.28
2019-03-13T22:42:59.931Z,99918.13
2019-03-13T22:45:31.610Z,99917.95
2019-03-13T22:48:02.497Z,99919.73
2019-03-13T22:50:34.255Z,99922.28
2019-03-13T22:53:05.202Z,99919.16
2019-03-13T22:55:36.112Z,99913.62
2019-03-13T22:58:06.996Z,99915.15
2019-03-13T23:00:53.291Z,99905.56
2019-03-13T23:03:26.156Z,99905.38
2019-03-13T23:05:58.279Z,99897.49
2019-03-13T23:08:31.130Z,99899.16
2019-03-13T23:11:01.790Z,99897.77
2019-03-13T23:13:32.659Z,99889.97
2019-03-13T23:16:03.555Z,99897.86
2019-03-13T23:18:34.432Z,99887.06
2019-03-13T23:21:06.350Z,99884.70
2019-03-13T23:23:37.228Z,99886.58
2019-03-13T23:26:08.132Z,99878.91
2019-03-13T23:28:39.015Z,99877.20
2019-03-13T23:31:09.930Z,99873.44
2019-03-13T23:33:40.856Z,99874.75
2019-03-13T23:36:11.793Z,99874.68
2019-03-13T23:38:42.677Z,99869.78
2019-03-13T23:41:13.586Z,99870.25
2019-03-13T23:43:44.453Z,99859.27
2019-03-13T23:46:15.504Z,99856.01
2019-03-13T23:48:46.384Z,99849.23
2019-03-13T23:51:18.096Z,99854.70
2019-03-13T23:53:48.994Z,99849.62
2019-03-13T23:56:19.904Z,99843.05
2019-03-13T23:58:50.824Z,99847.27
